createdAt,value
2018-06-08T00:00:54.171Z,0.00
2018-06-08T00:01:54.126Z,0.00
2018-06-08T00:02:54.085Z,0.00
2018-06-08T00:03:54.066Z,0.00
2018-06-08T00:04:53.998Z,0.00
2018-06-08T00:05:53.962Z,0.00
2018-06-08T00:06:53.910Z,0.00
2018-06-08T00:07:53.899Z,0.00
2018-06-08T00:08:53.863Z,0.00
2018-06-08T00:09:53.782Z,0.00
2018-06-08T00:10:53.763Z,0.00
2018-06-08T00:11:53.695Z,0.00
2018-06-08T00:12:53.652Z,0.00
2018-06-08T00:13:53.609Z,0.00
2018-06-08T00:14:53.564Z,0.00
2018-06-08T00:15:53.552Z,0.00
2018-06-08T00:16:53.478Z,0.00
2018-06-08T00:17:53.434Z,0.00
2018-06-08T00:18:53.388Z,0.00
2018-06-08T00:19:53.345Z,0.00
2018-06-08T00:20:53.344Z,0.00
2018-06-08T00:21:53.260Z,0.00
2018-06-08T00:22:53.216Z,0.00
2018-06-08T00:23:53.170Z,0.00
2018-06-08T00:24:53.127Z,0.00
2018-06-08T00:25:53.121Z,0.00
2018-06-08T00:26:53.045Z,0.00
2018-06-08T00:27:53.031Z,0.00
2018-06-08T00:28:52.957Z,0.00
2018-06-08T00:29:52.912Z,0.00
2018-06-08T00:30:52.868Z,0.00
2018-06-08T00:31:52.825Z,0.00
2018-06-08T00:32:52.805Z,0.00
2018-06-08T00:33:52.765Z,0.00
2018-06-08T00:34:52.698Z,0.00
2018-06-08T00:35:52.687Z,0.00
2018-06-08T00:36:52.605Z,0.00
2018-06-08T00:37:52.562Z,0.00
2018-06-08T00:38:52.519Z,0.00
2018-06-08T00:39:52.474Z,0.00
2018-06-08T00:40:52.462Z,0.00
2018-06-08T00:41:52.395Z,0.00
2018-06-08T00:42:52.344Z,0.00
2018-06-08T00:43:52.301Z,0.00
2018-06-08T00:44:52.258Z,0.00
2018-06-08T00:45:52.243Z,0.00
2018-06-08T00:46:52.169Z,0.00
2018-06-08T00:47:52.160Z,0.00
2018-06-08T00:48:52.082Z,0.00
2018-06-08T00:49:52.037Z,0.00
2018-06-08T00:50:51.996Z,0.00
2018-06-08T00:51:51.956Z,0.00
2018-06-08T00:52:51.940Z,0.00
2018-06-08T00:53:51.865Z,0.00
2018-06-08T00:54:51.821Z,0.00
2018-06-08T00:55:51.775Z,0.00
2018-06-08T00:56:51.733Z,0.00
2018-06-08T00:57:51.720Z,0.00
2018-06-08T00:58:51.650Z,0.00
2018-06-08T00:59:51.634Z,0.00
2018-06-08T01:00:51.563Z,0.00
2018-06-08T01:01:51.516Z,0.00
2018-06-08T01:02:51.496Z,0.00
2018-06-08T01:03:51.428Z,0.00
2018-06-08T01:04:51.388Z,0.00
2018-06-08T01:05:51.339Z,0.00
2018-06-08T01:06:51.296Z,0.00
2018-06-08T01:07:51.276Z,0.00
2018-06-08T01:08:51.208Z,0.00
2018-06-08T01:09:51.166Z,0.00
2018-06-08T01:10:51.126Z,0.00
2018-06-08T01:11:51.079Z,0.00
2018-06-08T01:12:51.059Z,0.00
2018-06-08T01:13:50.989Z,0.00
2018-06-08T01:14:50.946Z,0.00
2018-06-08T01:15:50.901Z,0.00
2018-06-08T01:16:50.858Z,0.00
2018-06-08T01:17:50.844Z,0.00
2018-06-08T01:18:50.771Z,0.00
2018-06-08T01:19:50.728Z,0.00
2018-06-08T01:20:50.687Z,0.00
2018-06-08T01:21:50.639Z,0.00
2018-06-08T01:22:50.635Z,0.00
2018-06-08T01:23:50.550Z,0.00
2018-06-08T01:24:50.507Z,0.00
2018-06-08T01:25:50.465Z,0.00
2018-06-08T01:26:50.420Z,0.00
2018-06-08T01:27:50.421Z,0.00
2018-06-08T01:28:50.331Z,0.00
2018-06-08T01:29:50.291Z,0.00
2018-06-08T01:30:50.243Z,0.00
2018-06-08T01:31:50.200Z,0.00
2018-06-08T01:32:50.198Z,0.00
2018-06-08T01:33:50.113Z,0.00
2018-06-08T01:34:50.069Z,0.00
2018-06-08T01:35:50.082Z,0.00
2018-06-08T01:36:49.981Z,0.00
2018-06-08T01:37:49.960Z,0.00
2018-06-08T01:38:49.892Z,0.00
2018-06-08T01:39:49.880Z,0.00
2018-06-08T01:40:49.810Z,0.00
2018-06-08T01:41:49.765Z,0.00
2018-06-08T01:42:49.757Z,0.00
2018-06-08T01:43:49.683Z,0.00
2018-06-08T01:44:49.633Z,0.00
2018-06-08T01:45:49.585Z,0.00
2018-06-08T01:46:49.545Z,0.00
2018-06-08T01:47:49.529Z,0.00
2018-06-08T01:48:49.454Z,0.00
2018-06-08T01:49:49.411Z,0.00
2018-06-08T01:50:49.367Z,0.00
2018-06-08T01:51:49.359Z,0.00
2018-06-08T01:52:49.276Z,0.00
2018-06-08T01:53:49.234Z,0.00
2018-06-08T01:54:49.189Z,0.00
2018-06-08T01:55:49.156Z,0.00
2018-06-08T01:56:49.134Z,0.00
2018-06-08T01:57:49.059Z,0.00
2018-06-08T01:58:49.013Z,0.00
2018-06-08T01:59:48.969Z,0.00
2018-06-08T02:00:48.987Z,0.00
2018-06-08T02:01:48.880Z,0.00
2018-06-08T02:02:48.836Z,0.00
2018-06-08T02:03:48.795Z,0.00
2018-06-08T02:04:48.749Z,0.00
2018-06-08T02:05:48.754Z,0.00
2018-06-08T02:06:48.663Z,0.00
2018-06-08T02:07:48.616Z,0.00
2018-06-08T02:08:48.605Z,0.00
2018-06-08T02:09:48.530Z,0.00
2018-06-08T02:10:48.543Z,0.00
2018-06-08T02:11:48.472Z,0.00
2018-06-08T02:12:48.395Z,0.00
2018-06-08T02:13:48.352Z,0.00
2018-06-08T02:14:48.311Z,0.00
2018-06-08T02:15:48.267Z,0.00
2018-06-08T02:16:48.253Z,0.00
2018-06-08T02:17:48.218Z,0.00
2018-06-08T02:18:48.132Z,0.00
2018-06-08T02:19:48.088Z,0.00
2018-06-08T02:20:48.045Z,0.00
2018-06-08T02:21:48.003Z,0.00
2018-06-08T02:22:47.988Z,0.00
2018-06-08T02:23:47.908Z,0.00
2018-06-08T02:24:47.864Z,0.00
2018-06-08T02:25:47.821Z,0.00
2018-06-08T02:26:47.777Z,0.00
2018-06-08T02:27:47.763Z,0.00
2018-06-08T02:28:47.690Z,0.00
2018-06-08T02:29:47.645Z,0.00
2018-06-08T02:30:47.645Z,0.00
2018-06-08T02:31:47.557Z,0.00
2018-06-08T02:32:47.510Z,0.00
2018-06-08T02:33:47.468Z,0.00
2018-06-08T02:34:47.428Z,0.00
2018-06-08T02:35:47.426Z,0.00
2018-06-08T02:36:47.346Z,0.00
2018-06-08T02:37:47.294Z,0.00
2018-06-08T02:38:47.246Z,0.00
2018-06-08T02:39:47.209Z,0.00
2018-06-08T02:40:47.193Z,0.00
2018-06-08T02:41:47.114Z,0.00
2018-06-08T02:42:47.073Z,0.00
2018-06-08T02:43:47.068Z,4.00
2018-06-08T02:44:46.985Z,0.00
2018-06-08T02:45:46.940Z,0.00
2018-06-08T02:46:46.894Z,4.00
2018-06-08T02:47:46.882Z,0.00
2018-06-08T02:48:46.807Z,4.00
2018-06-08T02:49:46.761Z,0.00
2018-06-08T02:50:46.724Z,0.00
2018-06-08T02:51:46.677Z,4.00
2018-06-08T02:52:46.661Z,4.00
2018-06-08T02:53:46.587Z,4.00
2018-06-08T02:54:46.544Z,4.00
2018-06-08T02:55:46.497Z,4.00
2018-06-08T02:56:46.453Z,8.00
2018-06-08T02:57:46.451Z,8.00
2018-06-08T02:58:46.365Z,8.00
2018-06-08T02:59:46.322Z,8.00
2018-06-08T03:00:46.280Z,12.00
2018-06-08T03:01:46.239Z,12.00
2018-06-08T03:02:46.229Z,12.00
2018-06-08T03:03:46.144Z,12.00
2018-06-08T03:04:46.101Z,12.00
2018-06-08T03:05:46.057Z,16.00
2018-06-08T03:06:46.014Z,16.00
2018-06-08T03:07:46.002Z,20.00
2018-06-08T03:08:45.921Z,16.00
2018-06-08T03:09:45.882Z,20.00
2018-06-08T03:10:45.863Z,24.00
2018-06-08T03:11:45.823Z,24.00
2018-06-08T03:15:48.720Z,36.00
2018-06-08T03:18:21.868Z,48.00
2018-06-08T03:19:20.101Z,52.00
2018-06-08T03:20:20.050Z,52.00
2018-06-08T03:21:22.836Z,56.00
2018-06-08T03:22:19.996Z,64.00
2018-06-08T03:23:19.923Z,68.00
2018-06-08T03:24:19.875Z,76.00
2018-06-08T03:25:19.859Z,76.00
2018-06-08T03:26:19.789Z,84.00
2018-06-08T03:27:19.773Z,92.00
2018-06-08T03:28:19.698Z,100.00
2018-06-08T03:29:19.684Z,104.00
2018-06-08T03:30:19.609Z,112.00
2018-06-08T03:31:19.562Z,116.00
2018-06-08T03:32:19.519Z,124.00
2018-06-08T03:33:19.473Z,128.00
2018-06-08T03:34:19.463Z,132.00
2018-06-08T03:35:19.385Z,136.00
2018-06-08T03:36:19.342Z,144.00
2018-06-08T03:37:19.295Z,144.00
2018-06-08T03:38:19.287Z,148.00
2018-06-08T03:39:19.209Z,144.00
2018-06-08T03:40:19.164Z,144.00
2018-06-08T03:41:19.120Z,148.00
2018-06-08T03:42:19.108Z,152.00
2018-06-08T03:43:19.033Z,152.00
2018-06-08T03:44:18.989Z,156.00
2018-06-08T03:45:18.942Z,156.00
2018-06-08T03:46:18.901Z,156.00
2018-06-08T03:47:18.886Z,160.00
2018-06-08T03:48:18.811Z,160.00
2018-06-08T03:49:18.766Z,164.00
2018-06-08T03:50:18.725Z,168.00
2018-06-08T03:51:18.677Z,172.00
2018-06-08T03:52:18.666Z,172.00
2018-06-08T03:53:18.587Z,176.00
2018-06-08T03:54:18.543Z,176.00
2018-06-08T03:55:18.500Z,176.00
2018-06-08T03:56:18.456Z,172.00
2018-06-08T03:57:18.444Z,176.00
2018-06-08T03:58:18.366Z,172.00
2018-06-08T03:59:18.322Z,180.00
2018-06-08T04:00:18.278Z,180.00
2018-06-08T04:01:18.230Z,184.00
2018-06-08T04:02:18.219Z,188.00
2018-06-08T04:03:18.179Z,188.00
2018-06-08T04:04:18.100Z,192.00
2018-06-08T04:05:18.054Z,192.00
2018-06-08T04:06:18.012Z,196.00
2018-06-08T04:07:17.966Z,200.00
2018-06-08T04:08:17.961Z,200.00
2018-06-08T04:09:17.876Z,204.00
2018-06-08T04:10:17.833Z,208.00
2018-06-08T04:11:17.788Z,208.00
2018-06-08T04:12:17.742Z,212.00
2018-06-08T04:13:17.731Z,216.00
2018-06-08T04:14:17.690Z,216.00
2018-06-08T04:15:17.610Z,224.00
2018-06-08T04:16:17.564Z,228.00
2018-06-08T04:17:17.530Z,232.00
2018-06-08T04:18:17.494Z,244.00
2018-06-08T04:19:17.463Z,252.00
2018-06-08T04:20:17.385Z,264.00
2018-06-08T04:21:17.373Z,276.00
2018-06-08T04:22:17.297Z,288.00
2018-06-08T04:23:17.252Z,300.00
2018-06-08T04:24:17.209Z,316.00
2018-06-08T04:25:17.167Z,332.00
2018-06-08T04:26:17.153Z,348.00
2018-06-08T04:27:17.105Z,360.00
2018-06-08T04:28:17.029Z,372.00
2018-06-08T04:29:16.983Z,380.00
2018-06-08T04:30:16.973Z,384.00
2018-06-08T04:31:16.901Z,384.00
2018-06-08T04:32:16.884Z,388.00
2018-06-08T04:33:16.806Z,392.00
2018-06-08T04:34:16.764Z,396.00
2018-06-08T04:35:16.718Z,404.00
2018-06-08T04:36:16.673Z,412.00
2018-06-08T04:37:16.666Z,420.00
2018-06-08T04:38:16.586Z,432.00
2018-06-08T04:39:16.572Z,444.00
2018-06-08T04:40:16.497Z,456.00
2018-06-08T04:41:16.453Z,468.00
2018-06-08T04:42:16.409Z,480.00
2018-06-08T04:43:16.396Z,492.00
2018-06-08T04:44:16.320Z,500.00
2018-06-08T04:45:16.275Z,512.00
2018-06-08T04:46:16.233Z,516.00
2018-06-08T04:47:16.223Z,524.00
2018-06-08T04:48:16.143Z,532.00
2018-06-08T04:49:16.099Z,540.00
2018-06-08T04:50:16.086Z,548.00
2018-06-08T04:51:16.019Z,556.00
2018-06-08T04:52:15.998Z,564.00
2018-06-08T04:53:15.923Z,572.00
2018-06-08T04:54:15.880Z,576.00
2018-06-08T04:55:15.834Z,584.00
2018-06-08T04:56:15.825Z,588.00
2018-06-08T04:57:15.795Z,596.00
2018-06-08T04:58:15.701Z,604.00
2018-06-08T04:59:15.659Z,616.00
2018-06-08T05:00:15.617Z,632.00
2018-06-08T05:01:15.574Z,644.00
2018-06-08T05:02:15.558Z,660.00
2018-06-08T05:03:15.488Z,676.00
2018-06-08T05:04:15.477Z,696.00
2018-06-08T05:05:15.431Z,712.00
2018-06-08T05:06:15.353Z,732.00
2018-06-08T05:07:15.309Z,748.00
2018-06-08T05:08:15.276Z,760.00
2018-06-08T05:09:15.222Z,772.00
2018-06-08T05:10:15.215Z,784.00
2018-06-08T05:11:15.132Z,792.00
2018-06-08T05:12:15.090Z,796.00
2018-06-08T05:13:15.048Z,796.00
2018-06-08T05:14:15.004Z,796.00
2018-06-08T05:15:14.992Z,804.00
2018-06-08T05:16:14.915Z,804.00
2018-06-08T05:17:14.869Z,808.00
2018-06-08T05:18:14.829Z,808.00
2018-06-08T05:19:14.821Z,808.00
2018-06-08T05:20:14.782Z,808.00
2018-06-08T05:21:14.698Z,808.00
2018-06-08T05:22:14.655Z,808.00
2018-06-08T05:23:14.614Z,816.00
2018-06-08T05:24:14.564Z,820.00
2018-06-08T05:25:14.560Z,828.00
2018-06-08T05:26:14.534Z,836.00
2018-06-08T05:27:14.435Z,840.00
2018-06-08T05:28:14.393Z,848.00
2018-06-08T05:29:14.349Z,856.00
2018-06-08T05:30:14.338Z,860.00
2018-06-08T05:31:14.265Z,864.00
2018-06-08T05:32:14.217Z,868.00
2018-06-08T05:33:14.177Z,876.00
2018-06-08T05:34:14.131Z,884.00
2018-06-08T05:35:14.121Z,892.00
2018-06-08T05:36:14.103Z,904.00
2018-06-08T05:37:14.036Z,916.00
2018-06-08T05:38:13.958Z,932.00
2018-06-08T05:39:13.919Z,948.00
2018-06-08T05:40:13.875Z,964.00
2018-06-08T05:41:13.828Z,984.00
2018-06-08T05:42:13.819Z,1000.00
2018-06-08T05:43:13.741Z,1012.00
2018-06-08T05:44:13.700Z,1024.00
2018-06-08T05:45:13.656Z,1032.00
2018-06-08T05:46:13.642Z,1040.00
2018-06-08T05:47:13.598Z,1040.00
2018-06-08T05:48:13.581Z,1048.00
2018-06-08T05:49:13.484Z,1048.00
2018-06-08T05:50:13.480Z,1052.00
2018-06-08T05:51:13.401Z,1060.00
2018-06-08T05:52:13.354Z,1072.00
2018-06-08T05:53:13.313Z,1088.00
2018-06-08T05:54:13.323Z,1112.00
2018-06-08T05:55:13.254Z,1136.00
2018-06-08T05:56:13.217Z,1156.00
2018-06-08T05:57:13.134Z,1176.00
2018-06-08T05:58:13.090Z,1196.00
2018-06-08T05:59:13.054Z,1212.00
2018-06-08T06:00:13.010Z,1224.00
2018-06-08T06:01:13.046Z,1240.00
2018-06-08T06:02:12.918Z,1264.00
2018-06-08T06:03:12.875Z,1292.00
2018-06-08T06:04:12.865Z,1320.00
2018-06-08T06:05:12.790Z,1348.00
2018-06-08T06:06:12.748Z,1372.00
2018-06-08T06:07:12.709Z,1396.00
2018-06-08T06:08:12.714Z,1412.00
2018-06-08T06:09:12.652Z,1424.00
2018-06-08T06:10:12.575Z,1432.00
2018-06-08T06:11:12.532Z,1448.00
2018-06-08T06:12:12.523Z,1464.00
2018-06-08T06:13:12.449Z,1480.00
2018-06-08T06:14:12.408Z,1504.00
2018-06-08T06:15:12.361Z,1524.00
2018-06-08T06:16:12.321Z,1544.00
2018-06-08T06:17:12.305Z,1552.00
2018-06-08T06:18:12.266Z,1560.00
2018-06-08T06:19:12.192Z,1568.00
2018-06-08T06:20:12.147Z,1572.00
2018-06-08T06:21:12.104Z,1588.00
2018-06-08T06:22:12.062Z,1616.00
2018-06-08T06:23:12.058Z,1652.00
2018-06-08T06:24:11.975Z,1688.00
2018-06-08T06:25:11.933Z,1728.00
2018-06-08T06:26:11.892Z,1760.00
2018-06-08T06:27:11.849Z,1784.00
2018-06-08T06:28:11.839Z,1804.00
2018-06-08T06:29:11.771Z,1820.00
2018-06-08T06:30:11.724Z,1840.00
2018-06-08T06:31:11.714Z,1872.00
2018-06-08T06:32:11.638Z,1904.00
2018-06-08T06:33:11.593Z,1936.00
2018-06-08T06:34:11.586Z,1964.00
2018-06-08T06:35:11.511Z,1984.00
2018-06-08T06:36:11.467Z,2000.00
2018-06-08T06:37:11.424Z,2012.00
2018-06-08T06:38:11.388Z,2012.00
2018-06-08T06:39:11.377Z,2008.00
2018-06-08T06:40:11.349Z,2008.00
2018-06-08T06:41:11.260Z,2004.00
2018-06-08T06:42:11.220Z,2008.00
2018-06-08T06:43:11.174Z,2012.00
2018-06-08T06:44:11.130Z,2024.00
2018-06-08T06:45:11.136Z,2032.00
2018-06-08T06:46:11.048Z,2044.00
2018-06-08T06:47:11.007Z,2060.00
2018-06-08T06:48:10.962Z,2084.00
2018-06-08T06:49:10.920Z,2096.00
2018-06-08T06:50:10.914Z,2108.00
2018-06-08T06:51:10.837Z,2120.00
2018-06-08T06:52:10.796Z,2140.00
2018-06-08T06:53:10.789Z,2168.00
2018-06-08T06:54:10.746Z,2200.00
2018-06-08T06:55:10.672Z,2244.00
2018-06-08T06:56:10.629Z,2288.00
2018-06-08T06:57:10.589Z,2336.00
2018-06-08T06:58:10.577Z,2388.00
2018-06-08T06:59:10.505Z,2444.00
2018-06-08T07:00:10.465Z,2504.00
2018-06-08T07:01:10.422Z,2556.00
2018-06-08T07:02:10.409Z,2608.00
2018-06-08T07:03:10.371Z,2656.00
2018-06-08T07:04:10.305Z,2704.00
2018-06-08T07:05:10.259Z,2764.00
2018-06-08T07:06:10.246Z,2828.00
2018-06-08T07:07:10.171Z,2904.00
2018-06-08T07:08:10.162Z,2988.00
2018-06-08T07:09:10.090Z,3068.00
2018-06-08T07:10:10.047Z,3156.00
2018-06-08T07:11:10.007Z,3244.00
2018-06-08T07:12:09.968Z,3336.00
2018-06-08T07:13:09.959Z,3424.00
2018-06-08T07:14:09.884Z,3508.00
2018-06-08T07:15:09.844Z,3592.00
2018-06-08T07:16:09.804Z,3648.00
2018-06-08T07:17:09.761Z,3692.00
2018-06-08T07:18:09.762Z,3724.00
2018-06-08T07:19:09.679Z,3764.00
2018-06-08T07:20:09.640Z,3828.00
2018-06-08T07:21:09.598Z,3908.00
2018-06-08T07:22:09.558Z,4000.00
2018-06-08T07:23:09.548Z,4108.00
2018-06-08T07:24:09.474Z,4208.00
2018-06-08T07:25:09.432Z,4304.00
2018-06-08T07:26:09.391Z,4388.00
2018-06-08T07:27:09.353Z,4456.00
2018-06-08T07:28:09.344Z,4440.00
2018-06-08T07:29:09.282Z,4428.00
2018-06-08T07:30:09.233Z,4388.00
2018-06-08T07:31:09.190Z,4392.00
2018-06-08T07:32:09.150Z,4408.00
2018-06-08T07:33:09.151Z,4444.00
2018-06-08T07:34:09.069Z,4468.00
2018-06-08T07:35:09.027Z,4504.00
2018-06-08T07:36:08.989Z,4552.00
2018-06-08T07:37:08.944Z,4592.00
2018-06-08T07:38:08.945Z,4724.00
2018-06-08T07:39:08.866Z,4688.00
2018-06-08T07:40:08.886Z,4724.00
2018-06-08T07:41:08.814Z,4776.00
2018-06-08T07:42:08.743Z,4788.00
2018-06-08T07:43:08.739Z,4760.00
2018-06-08T07:44:08.665Z,4776.00
2018-06-08T07:45:08.627Z,4752.00
2018-06-08T07:46:08.628Z,4788.00
2018-06-08T07:47:08.545Z,4828.00
2018-06-08T07:48:08.504Z,4892.00
2018-06-08T07:49:08.467Z,5068.00
2018-06-08T07:50:08.424Z,5160.00
2018-06-08T07:51:08.430Z,5248.00
2018-06-08T07:52:08.343Z,5420.00
2018-06-08T07:53:08.304Z,5488.00
2018-06-08T07:54:08.263Z,5560.00
2018-06-08T07:55:08.222Z,5632.00
2018-06-08T07:56:08.216Z,5616.00
2018-06-08T07:57:08.145Z,5636.00
2018-06-08T07:58:08.104Z,5536.00
2018-06-08T07:59:08.071Z,5492.00
2018-06-08T08:00:08.062Z,5464.00
2018-06-08T08:01:08.022Z,5424.00
2018-06-08T08:02:07.975Z,5392.00
2018-06-08T08:03:07.907Z,5424.00
2018-06-08T08:04:07.865Z,5460.00
2018-06-08T08:05:07.829Z,5400.00
2018-06-08T08:06:07.788Z,5428.00
2018-06-08T08:07:07.786Z,5564.00
2018-06-08T08:08:07.713Z,5668.00
2018-06-08T08:09:07.689Z,5624.00
2018-06-08T08:10:07.629Z,5568.00
2018-06-08T08:11:07.625Z,5528.00
2018-06-08T08:12:07.554Z,5440.00
2018-06-08T08:13:07.516Z,5276.00
2018-06-08T08:14:07.472Z,5372.00
2018-06-08T08:15:07.434Z,5444.00
2018-06-08T08:16:07.433Z,5532.00
2018-06-08T08:17:07.354Z,5552.00
2018-06-08T08:18:07.315Z,5628.00
2018-06-08T08:19:07.280Z,5716.00
2018-06-08T08:20:07.237Z,5860.00
2018-06-08T08:21:07.243Z,5972.00
2018-06-08T08:22:07.154Z,6040.00
2018-06-08T08:23:07.114Z,6056.00
2018-06-08T08:24:07.083Z,6060.00
2018-06-08T08:25:07.040Z,6140.00
2018-06-08T08:26:07.031Z,6196.00
2018-06-08T08:27:07.002Z,6224.00
2018-06-08T08:28:06.924Z,6312.00
2018-06-08T08:29:06.892Z,6360.00
2018-06-08T08:30:06.848Z,6408.00
2018-06-08T08:31:06.803Z,6460.00
2018-06-08T08:32:06.795Z,6592.00
2018-06-08T08:33:06.724Z,6664.00
2018-06-08T08:34:06.687Z,6672.00
2018-06-08T08:35:06.653Z,6696.00
2018-06-08T08:36:06.608Z,6760.00
2018-06-08T08:37:06.600Z,6536.00
2018-06-08T08:38:06.528Z,6640.00
2018-06-08T08:39:06.490Z,6708.00
2018-06-08T08:40:06.449Z,6756.00
2018-06-08T08:41:06.411Z,6832.00
2018-06-08T08:42:06.413Z,6824.00
2018-06-08T08:43:06.331Z,6728.00
2018-06-08T08:44:06.291Z,6796.00
2018-06-08T08:45:06.249Z,6756.00
2018-06-08T08:46:06.217Z,6836.00
2018-06-08T08:47:06.213Z,6912.00
2018-06-08T08:48:06.136Z,6808.00
2018-06-08T08:49:06.099Z,6828.00
2018-06-08T08:50:06.061Z,6868.00
2018-06-08T08:51:06.052Z,6988.00
2018-06-08T08:52:06.026Z,7084.00
2018-06-08T08:53:05.939Z,7148.00
2018-06-08T08:54:05.900Z,7124.00
2018-06-08T08:55:05.864Z,7128.00
2018-06-08T08:56:05.855Z,7132.00
2018-06-08T08:57:05.897Z,7268.00
2018-06-08T08:58:05.749Z,7364.00
2018-06-08T08:59:05.707Z,7172.00
2018-06-08T09:00:05.672Z,6920.00
2018-06-08T09:01:05.633Z,6720.00
2018-06-08T09:02:05.622Z,6496.00
2018-06-08T09:03:05.552Z,6244.00
2018-06-08T09:04:05.514Z,6100.00
2018-06-08T09:05:05.476Z,6056.00
2018-06-08T09:06:05.469Z,6084.00
2018-06-08T09:07:05.431Z,6192.00
2018-06-08T09:08:05.360Z,6304.00
2018-06-08T09:09:05.321Z,6180.00
2018-06-08T09:10:05.283Z,6016.00
2018-06-08T09:11:05.244Z,5924.00
2018-06-08T09:12:05.249Z,5784.00
2018-06-08T09:13:05.171Z,5688.00
2018-06-08T09:14:05.130Z,5396.00
2018-06-08T09:15:05.096Z,5228.00
2018-06-08T09:16:05.055Z,5108.00
2018-06-08T09:17:05.051Z,5076.00
2018-06-08T09:18:04.978Z,5068.00
2018-06-08T09:19:04.989Z,5160.00
2018-06-08T09:20:04.910Z,5144.00
2018-06-08T09:21:04.863Z,5060.00
2018-06-08T09:22:04.825Z,5024.00
2018-06-08T09:23:04.786Z,5088.00
2018-06-08T09:24:04.881Z,5120.00
2018-06-08T09:25:04.715Z,5424.00
2018-06-08T09:26:04.676Z,6048.00
2018-06-08T09:27:04.636Z,6268.00
2018-06-08T09:28:04.600Z,6184.00
2018-06-08T09:29:04.617Z,6180.00
2018-06-08T09:30:04.524Z,6372.00
2018-06-08T09:31:04.487Z,6272.00
2018-06-08T09:32:04.447Z,6128.00
2018-06-08T09:33:04.420Z,5956.00
2018-06-08T09:34:04.411Z,5764.00
2018-06-08T09:35:04.339Z,5880.00
2018-06-08T09:36:04.349Z,6160.00
2018-06-08T09:37:04.258Z,6600.00
2018-06-08T09:38:04.225Z,6740.00
2018-06-08T09:39:04.187Z,6748.00
2018-06-08T09:40:04.218Z,6812.00
2018-06-08T09:41:04.145Z,6692.00
2018-06-08T09:42:04.114Z,5560.00
2018-06-08T09:43:04.075Z,5532.00
2018-06-08T09:44:04.000Z,6284.00
2018-06-08T09:45:03.964Z,6760.00
2018-06-08T09:46:03.932Z,6664.00
2018-06-08T09:47:03.931Z,6528.00
2018-06-08T09:48:03.856Z,6496.00
2018-06-08T09:49:03.848Z,6444.00
2018-06-08T09:50:03.781Z,6372.00
2018-06-08T09:51:03.746Z,6312.00
2018-06-08T09:52:03.710Z,6100.00
2018-06-08T09:53:03.672Z,5956.00
2018-06-08T09:54:03.675Z,5852.00
2018-06-08T09:55:03.601Z,5760.00
2018-06-08T09:56:03.563Z,5632.00
2018-06-08T09:57:03.524Z,5588.00
2018-06-08T09:58:03.492Z,5284.00
2018-06-08T09:59:03.492Z,5452.00
2018-06-08T10:00:03.424Z,4720.00
2018-06-08T10:01:03.386Z,4536.00
2018-06-08T10:02:03.347Z,4180.00
2018-06-08T10:03:03.310Z,4176.00
2018-06-08T10:04:03.309Z,4184.00
2018-06-08T10:05:03.239Z,4196.00
2018-06-08T10:06:03.203Z,4176.00
2018-06-08T10:07:03.166Z,3900.00
2018-06-08T10:08:03.134Z,3672.00
2018-06-08T10:09:03.141Z,3560.00
2018-06-08T10:10:03.058Z,3728.00
2018-06-08T10:11:03.019Z,3428.00
2018-06-08T10:12:02.985Z,3344.00
2018-06-08T10:13:02.953Z,3340.00
2018-06-08T10:14:02.952Z,3296.00
2018-06-08T10:15:02.876Z,3328.00
2018-06-08T10:16:02.842Z,3296.00
2018-06-08T10:17:02.807Z,3272.00
2018-06-08T10:18:02.766Z,3304.00
2018-06-08T10:19:02.772Z,3344.00
2018-06-08T10:20:02.699Z,3416.00
2018-06-08T10:21:02.661Z,3532.00
2018-06-08T10:22:02.644Z,3616.00
2018-06-08T10:23:02.585Z,3720.00
2018-06-08T10:24:02.583Z,3876.00
2018-06-08T10:25:02.514Z,4136.00
2018-06-08T10:26:02.475Z,5160.00
2018-06-08T10:27:02.469Z,5192.00
2018-06-08T10:28:02.406Z,5068.00
2018-06-08T10:29:02.366Z,5220.00
2018-06-08T10:30:02.327Z,5208.00
2018-06-08T10:31:02.325Z,5332.00
2018-06-08T10:32:02.254Z,5312.00
2018-06-08T10:33:02.217Z,5312.00
2018-06-08T10:34:02.226Z,5240.00
2018-06-08T10:35:02.141Z,5144.00
2018-06-08T10:36:02.149Z,5160.00
2018-06-08T10:37:02.069Z,5000.00
2018-06-08T10:38:02.037Z,5008.00
2018-06-08T10:39:01.999Z,4968.00
2018-06-08T10:40:02.023Z,4968.00
2018-06-08T10:41:01.963Z,4876.00
2018-06-08T10:42:01.888Z,4952.00
2018-06-08T10:43:01.886Z,4896.00
2018-06-08T10:44:01.815Z,4896.00
2018-06-08T10:45:01.787Z,4816.00
2018-06-08T10:46:01.746Z,4756.00
2018-06-08T10:47:01.710Z,4888.00
2018-06-08T10:48:01.715Z,4860.00
2018-06-08T10:49:01.640Z,4916.00
2018-06-08T10:50:01.598Z,4876.00
2018-06-08T10:51:01.566Z,5000.00
2018-06-08T10:52:01.527Z,5104.00
2018-06-08T10:53:01.518Z,5124.00
2018-06-08T10:54:01.452Z,5204.00
2018-06-08T10:55:01.420Z,5184.00
2018-06-08T10:56:01.380Z,5188.00
2018-06-08T10:57:01.345Z,5204.00
2018-06-08T10:58:01.341Z,5460.00
2018-06-08T10:59:01.306Z,5320.00
2018-06-08T11:00:01.240Z,5340.00
2018-06-08T11:01:01.201Z,5228.00
2018-06-08T11:02:01.164Z,5472.00
2018-06-08T11:03:01.175Z,5320.00
2018-06-08T11:04:01.096Z,5396.00
2018-06-08T11:05:01.058Z,5584.00
2018-06-08T11:06:01.023Z,4372.00
2018-06-08T11:07:00.986Z,4496.00
2018-06-08T11:08:00.990Z,5940.00
2018-06-08T11:09:00.917Z,5852.00
2018-06-08T11:10:00.913Z,5396.00
2018-06-08T11:11:00.878Z,5336.00
2018-06-08T11:12:00.818Z,4708.00
2018-06-08T11:13:00.786Z,4944.00
2018-06-08T11:14:00.739Z,4620.00
2018-06-08T11:15:00.706Z,4784.00
2018-06-08T11:16:00.696Z,5852.00
2018-06-08T11:17:00.635Z,5928.00
2018-06-08T11:18:00.599Z,6036.00
2018-06-08T11:19:00.599Z,6092.00
2018-06-08T11:20:00.532Z,5608.00
2018-06-08T11:21:00.497Z,5740.00
2018-06-08T11:22:00.460Z,5212.00
2018-06-08T11:23:00.481Z,5316.00
2018-06-08T11:24:00.396Z,5072.00
2018-06-08T11:25:00.360Z,4908.00
2018-06-08T11:26:00.322Z,4728.00
2018-06-08T11:27:00.341Z,4624.00
2018-06-08T11:28:00.276Z,4548.00
2018-06-08T11:29:00.217Z,4800.00
2018-06-08T11:30:00.182Z,4708.00
2018-06-08T11:31:00.147Z,4516.00
2018-06-08T11:32:00.144Z,4516.00
2018-06-08T11:33:00.079Z,4636.00
2018-06-08T11:34:00.074Z,4408.00
2018-06-08T11:35:00.051Z,4464.00
2018-06-08T11:35:59.975Z,4328.00
2018-06-08T11:36:59.939Z,4108.00
2018-06-08T11:37:59.903Z,4088.00
2018-06-08T11:38:59.866Z,4244.00
2018-06-08T11:39:59.862Z,4104.00
2018-06-08T11:40:59.794Z,4356.00
2018-06-08T11:41:59.763Z,4236.00
2018-06-08T11:42:59.764Z,4352.00
2018-06-08T11:43:59.687Z,4324.00
2018-06-08T11:44:59.653Z,4500.00
2018-06-08T11:45:59.623Z,4832.00
2018-06-08T11:46:59.586Z,4832.00
2018-06-08T11:47:59.595Z,4656.00
2018-06-08T11:48:59.518Z,4568.00
2018-06-08T11:49:59.476Z,4680.00
2018-06-08T11:50:59.441Z,4828.00
2018-06-08T11:51:59.403Z,5396.00
2018-06-08T11:52:59.397Z,4768.00
2018-06-08T11:53:59.332Z,4844.00
2018-06-08T11:54:59.296Z,5288.00
2018-06-08T11:55:59.294Z,4968.00
2018-06-08T11:56:59.224Z,5232.00
2018-06-08T11:57:59.189Z,5120.00
2018-06-08T11:58:59.187Z,5184.00
2018-06-08T11:59:59.118Z,5064.00
2018-06-08T12:00:59.079Z,5032.00
2018-06-08T12:01:59.047Z,5104.00
2018-06-08T12:02:59.009Z,4992.00
2018-06-08T12:03:59.006Z,4956.00
2018-06-08T12:04:58.937Z,4828.00
2018-06-08T12:05:58.902Z,4900.00
2018-06-08T12:06:58.898Z,4884.00
2018-06-08T12:07:58.828Z,4784.00
2018-06-08T12:08:58.807Z,4812.00
2018-06-08T12:09:58.759Z,4876.00
2018-06-08T12:10:58.727Z,4880.00
2018-06-08T12:11:58.729Z,4864.00
2018-06-08T12:12:58.653Z,4816.00
2018-06-08T12:13:58.613Z,4796.00
2018-06-08T12:14:58.583Z,4828.00
2018-06-08T12:15:58.550Z,4764.00
2018-06-08T12:16:58.560Z,4676.00
2018-06-08T12:17:58.470Z,4716.00
2018-06-08T12:18:58.439Z,4724.00
2018-06-08T12:19:58.399Z,4712.00
2018-06-08T12:20:58.372Z,4716.00
2018-06-08T12:21:58.374Z,4600.00
2018-06-08T12:22:58.292Z,4604.00
2018-06-08T12:23:58.303Z,4580.00
2018-06-08T12:24:58.221Z,4536.00
2018-06-08T12:25:58.185Z,4492.00
2018-06-08T12:26:58.185Z,4504.00
2018-06-08T12:27:58.116Z,3092.00
2018-06-08T12:28:58.081Z,3084.00
2018-06-08T12:29:58.076Z,3088.00
2018-06-08T12:30:58.014Z,3844.00
2018-06-08T12:31:57.981Z,4664.00